createdAt,value
2022-08-20T00:03:51.671Z,23.90
2022-08-20T00:08:55.877Z,23.76
2022-08-20T00:13:59.501Z,23.66
2022-08-20T00:19:03.144Z,23.63
2022-08-20T00:24:05.578Z,23.59
2022-08-20T00:29:08.119Z,23.55
2022-08-20T00:34:10.400Z,23.53
2022-08-20T00:39:12.773Z,23.46
2022-08-20T00:44:16.792Z,23.36
2022-08-20T00:49:22.089Z,23.28
2022-08-20T00:54:29.726Z,23.20
2022-08-20T00:59:34.239Z,23.15
2022-08-20T01:04:36.902Z,23.05
2022-08-20T01:09:58.250Z,22.94
2022-08-20T01:15:02.366Z,22.85
2022-08-20T01:20:07.550Z,22.75
2022-08-20T01:25:12.654Z,22.67
2022-08-20T01:30:15.061Z,22.59
2022-08-20T01:35:19.738Z,22.55
2022-08-20T01:40:33.633Z,22.49
2022-08-20T01:45:36.476Z,22.43
2022-08-20T01:50:44.743Z,22.40
2022-08-20T01:55:47.221Z,22.37
2022-08-20T02:00:49.511Z,22.41
2022-08-20T02:05:53.243Z,22.44
2022-08-20T02:10:55.972Z,22.45
2022-08-20T02:15:58.850Z,22.47
2022-08-20T02:21:01.880Z,22.45
2022-08-20T02:26:07.405Z,22.38
2022-08-20T02:31:09.774Z,22.35
2022-08-20T02:36:12.866Z,22.34
2022-08-20T02:41:15.309Z,22.31
2022-08-20T02:46:19.210Z,22.29
2022-08-20T02:51:30.684Z,22.26
2022-08-20T02:56:33.354Z,22.24
2022-08-20T03:01:36.242Z,22.21
2022-08-20T03:06:38.659Z,22.20
2022-08-20T03:11:41.560Z,22.18
2022-08-20T03:16:44.420Z,22.19
2022-08-20T03:21:46.752Z,22.19
2022-08-20T03:26:49.471Z,22.24
2022-08-20T03:31:51.781Z,22.28
2022-08-20T03:36:54.132Z,22.30
2022-08-20T03:41:56.507Z,22.28
2022-08-20T03:46:59.082Z,22.29
2022-08-20T03:52:02.668Z,22.29
2022-08-20T03:57:12.817Z,22.32
2022-08-20T04:02:15.720Z,22.37
2022-08-20T04:07:25.238Z,22.43
2022-08-20T04:12:27.634Z,22.44
2022-08-20T04:17:30.250Z,22.43
2022-08-20T04:22:32.597Z,22.41
2022-08-20T04:27:37.081Z,22.41
2022-08-20T04:32:39.522Z,22.45
2022-08-20T04:37:42.956Z,22.48
2022-08-20T04:42:45.322Z,22.52
2022-08-20T04:47:49.549Z,22.55
2022-08-20T04:52:52.065Z,22.58
2022-08-20T04:57:55.339Z,22.63
2022-08-20T05:02:57.957Z,22.72
2022-08-20T05:08:00.769Z,22.82
2022-08-20T05:13:03.176Z,22.92
2022-08-20T05:18:07.812Z,23.03
2022-08-20T05:23:11.335Z,23.03
2022-08-20T05:28:18.554Z,22.97
2022-08-20T05:33:22.007Z,22.98
2022-08-20T05:38:26.121Z,23.11
2022-08-20T05:43:28.586Z,23.38
2022-08-20T05:48:31.060Z,23.68
2022-08-20T05:53:34.103Z,23.87
2022-08-20T05:58:37.029Z,24.11
2022-08-20T06:03:42.321Z,24.24
2022-08-20T06:08:44.621Z,24.36
2022-08-20T06:13:46.915Z,24.47
2022-08-20T06:18:49.359Z,24.66
2022-08-20T06:23:56.883Z,24.91
2022-08-20T06:29:04.454Z,25.05
2022-08-20T06:34:07.377Z,25.16
2022-08-20T06:39:09.699Z,25.23
2022-08-20T06:44:12.048Z,25.33
2022-08-20T06:49:14.403Z,25.48
2022-08-20T06:54:17.450Z,25.70
2022-08-20T06:59:20.179Z,26.01
2022-08-20T07:04:25.858Z,26.44
2022-08-20T07:09:28.215Z,26.72
2022-08-20T07:14:31.005Z,26.93
2022-08-20T07:19:36.173Z,27.13
2022-08-20T07:24:41.185Z,27.32
2022-08-20T07:29:47.305Z,27.36
2022-08-20T07:34:49.641Z,27.41
2022-08-20T07:39:53.019Z,27.54
2022-08-20T07:44:55.568Z,27.68
2022-08-20T07:49:58.487Z,27.99
2022-08-20T07:55:10.477Z,28.35
2022-08-20T08:00:13.691Z,28.56
2022-08-20T08:05:17.620Z,28.54
2022-08-20T08:10:21.937Z,28.62
2022-08-20T08:15:29.268Z,28.69
2022-08-20T08:20:31.856Z,28.66
2022-08-20T08:25:34.200Z,28.52
2022-08-20T08:30:37.428Z,28.51
2022-08-20T08:35:40.227Z,28.45
2022-08-20T08:40:44.617Z,28.41
2022-08-20T08:45:51.968Z,28.62
2022-08-20T08:50:57.335Z,29.24
2022-08-20T08:56:00.163Z,29.85
2022-08-20T09:01:06.928Z,30.23
2022-08-20T09:06:15.108Z,30.45
2022-08-20T09:11:19.864Z,30.47
2022-08-20T09:16:22.986Z,30.51
2022-08-20T09:21:25.330Z,30.71
2022-08-20T09:26:29.149Z,30.96
2022-08-20T09:31:31.633Z,31.39
2022-08-20T09:36:35.111Z,31.61
2022-08-20T09:41:37.423Z,31.81
2022-08-20T09:46:39.736Z,31.94
2022-08-20T09:51:42.085Z,31.96
2022-08-20T09:56:44.784Z,31.82
2022-08-20T10:01:47.162Z,31.64
2022-08-20T10:06:49.578Z,31.39
2022-08-20T10:11:51.891Z,31.29
2022-08-20T10:16:56.699Z,31.18
2022-08-20T10:22:02.902Z,31.07
2022-08-20T10:27:05.340Z,30.94
2022-08-20T10:32:11.962Z,30.83
2022-08-20T10:37:17.850Z,30.62
2022-08-20T10:42:20.167Z,30.39
2022-08-20T10:47:24.271Z,30.29
2022-08-20T10:52:27.190Z,30.34
2022-08-20T10:57:30.619Z,30.48
2022-08-20T11:02:32.932Z,30.79
2022-08-20T11:07:50.523Z,31.05
2022-08-20T11:12:58.906Z,31.34
2022-08-20T11:18:01.602Z,31.76
2022-08-20T11:23:04.425Z,32.33
2022-08-20T11:28:06.991Z,32.94
2022-08-20T11:33:09.294Z,33.78
2022-08-20T11:38:11.600Z,34.36
2022-08-20T11:43:15.926Z,34.50
2022-08-20T11:48:19.538Z,34.07
2022-08-20T11:53:22.328Z,33.73
2022-08-20T11:58:24.774Z,33.70
2022-08-20T12:03:27.117Z,33.64
2022-08-20T12:08:29.485Z,33.75
2022-08-20T12:13:47.857Z,33.76
2022-08-20T12:18:52.340Z,33.82
2022-08-20T12:23:54.685Z,34.07
2022-08-20T12:28:57.807Z,34.53
2022-08-20T12:34:00.153Z,34.88
2022-08-20T12:39:02.486Z,35.01
2022-08-20T12:44:07.033Z,35.20
2022-08-20T12:49:15.064Z,35.14
2022-08-20T12:54:17.369Z,34.72
2022-08-20T12:59:25.834Z,34.37
2022-08-20T13:04:28.502Z,34.42
2022-08-20T13:09:31.400Z,34.29
2022-08-20T13:14:33.733Z,34.20
2022-08-20T13:19:37.374Z,34.10
2022-08-20T13:24:39.876Z,34.20
2022-08-20T13:29:45.315Z,34.27
2022-08-20T13:34:47.960Z,34.13
2022-08-20T13:39:50.428Z,33.87
2022-08-20T13:44:53.143Z,33.72
2022-08-20T13:49:59.337Z,33.64
2022-08-20T13:55:01.989Z,33.68
2022-08-20T14:00:12.511Z,33.76
2022-08-20T14:05:19.239Z,33.77
2022-08-20T14:10:24.226Z,33.83
2022-08-20T14:15:26.900Z,33.85
2022-08-20T14:20:32.408Z,33.38
2022-08-20T14:25:35.216Z,32.60
2022-08-20T14:30:37.550Z,31.36
2022-08-20T14:35:40.227Z,30.44
2022-08-20T14:40:42.934Z,29.85
2022-08-20T14:45:45.590Z,29.66
2022-08-20T14:50:47.907Z,29.65
2022-08-20T14:55:50.211Z,29.70
2022-08-20T15:00:52.686Z,29.61
2022-08-20T15:05:55.021Z,29.25
2022-08-20T15:10:58.090Z,28.86
2022-08-20T15:16:00.405Z,28.61
2022-08-20T15:21:02.784Z,28.40
2022-08-20T15:26:06.811Z,28.22
2022-08-20T15:31:10.097Z,28.04
2022-08-20T15:36:12.481Z,27.89
2022-08-20T15:41:14.793Z,27.95
2022-08-20T15:46:17.114Z,27.93
2022-08-20T15:51:20.400Z,27.79
2022-08-20T15:56:22.688Z,27.56
2022-08-20T16:01:33.257Z,27.28
2022-08-20T16:06:36.525Z,27.09
2022-08-20T16:11:41.901Z,26.86
2022-08-20T16:16:44.200Z,26.53
2022-08-20T16:21:47.444Z,26.06
2022-08-20T16:26:53.565Z,25.41
2022-08-20T16:32:01.375Z,24.99
2022-08-20T16:37:11.827Z,24.74
2022-08-20T16:42:16.827Z,24.63
2022-08-20T16:47:19.165Z,24.56
2022-08-20T16:52:21.525Z,24.51
2022-08-20T16:57:26.150Z,24.45
2022-08-20T17:02:28.484Z,24.38
2022-08-20T17:07:33.780Z,24.26
2022-08-20T17:12:36.251Z,24.13
2022-08-20T17:17:38.720Z,23.90
2022-08-20T17:22:44.072Z,23.66
2022-08-20T17:27:47.080Z,23.43
2022-08-20T17:32:57.742Z,23.27
2022-08-20T17:38:01.881Z,23.18
2022-08-20T17:43:07.977Z,23.10
2022-08-20T17:48:30.208Z,23.05
2022-08-20T17:53:33.964Z,23.01
2022-08-20T17:58:54.308Z,22.95
2022-08-20T18:03:57.974Z,22.91
2022-08-20T18:09:03.542Z,22.89
2022-08-20T18:14:08.871Z,22.89
2022-08-20T18:19:15.308Z,22.85
2022-08-20T18:24:21.856Z,22.80
2022-08-20T18:29:27.590Z,22.76
2022-08-20T18:34:29.909Z,22.73
2022-08-20T18:39:34.624Z,22.71
2022-08-20T18:44:37.981Z,22.69
2022-08-20T18:49:40.720Z,22.71
2022-08-20T18:54:49.117Z,22.71
2022-08-20T18:59:57.228Z,22.66
2022-08-20T19:05:02.851Z,22.55
2022-08-20T19:10:09.312Z,22.45
2022-08-20T19:15:16.630Z,22.38
2022-08-20T19:20:21.707Z,22.35
2022-08-20T19:25:25.117Z,22.23
2022-08-20T19:30:29.704Z,21.98
2022-08-20T19:35:32.232Z,21.72
2022-08-20T19:40:40.176Z,21.52
2022-08-20T19:45:51.806Z,21.30
2022-08-20T19:50:54.731Z,21.16
2022-08-20T19:56:00.060Z,21.07
2022-08-20T20:01:03.539Z,21.06
2022-08-20T20:06:16.166Z,21.12
2022-08-20T20:11:20.807Z,21.21
2022-08-20T20:16:23.332Z,21.31
2022-08-20T20:21:36.454Z,21.37
2022-08-20T20:26:40.700Z,21.39
2022-08-20T20:31:46.135Z,21.37
2022-08-20T20:36:48.555Z,21.35
2022-08-20T20:41:52.353Z,21.34
2022-08-20T20:46:56.821Z,21.28
2022-08-20T20:52:01.419Z,21.00
2022-08-20T20:57:06.155Z,20.47
2022-08-20T21:02:08.727Z,20.14
2022-08-20T21:07:14.853Z,19.91
2022-08-20T21:12:18.597Z,19.74
2022-08-20T21:17:22.550Z,19.64
2022-08-20T21:22:24.875Z,19.52
2022-08-20T21:27:28.038Z,19.45
2022-08-20T21:32:30.721Z,19.43
2022-08-20T21:37:33.237Z,19.47
2022-08-20T21:42:37.282Z,19.55
2022-08-20T21:47:41.275Z,19.64
2022-08-20T21:52:43.638Z,19.74
2022-08-20T21:58:03.662Z,19.78
2022-08-20T22:03:06.185Z,19.79
2022-08-20T22:08:08.849Z,19.78
2022-08-20T22:13:11.391Z,19.83
2022-08-20T22:18:13.819Z,20.00
2022-08-20T22:23:16.180Z,20.12
2022-08-20T22:28:18.926Z,20.24
2022-08-20T22:33:23.269Z,20.35
2022-08-20T22:38:25.662Z,20.37
2022-08-20T22:43:28.061Z,20.37
2022-08-20T22:48:30.847Z,20.40
2022-08-20T22:53:33.388Z,20.41
2022-08-20T22:58:35.725Z,20.40
2022-08-20T23:03:39.396Z,20.40
2022-08-20T23:08:42.826Z,20.42
2022-08-20T23:13:45.121Z,20.46
2022-08-20T23:18:47.514Z,20.50
2022-08-20T23:23:50.733Z,20.47
2022-08-20T23:28:53.057Z,20.56
2022-08-20T23:33:55.707Z,20.69
2022-08-20T23:38:58.346Z,20.79
2022-08-20T23:44:00.739Z,20.85
2022-08-20T23:49:03.661Z,20.81
2022-08-20T23:54:06.158Z,20.75
2022-08-20T23:59:08.453Z,20.74
